sensor_id;sensor_type;location;lat;lon;timestamp;temperature;humidity
37910;DHT22;23741;49.446;8.754;2022-11-25T00:00:07;11.00;69.30
37910;DHT22;23741;49.446;8.754;2022-11-25T00:02:12;11.00;69.20
37910;DHT22;23741;49.446;8.754;2022-11-25T00:04:13;11.00;69.50
37910;DHT22;23741;49.446;8.754;2022-11-25T00:06:17;11.00;69.60
37910;DHT22;23741;49.446;8.754;2022-11-25T00:08:19;10.90;69.40
37910;DHT22;23741;49.446;8.754;2022-11-25T00:10:20;11.00;69.50
37910;DHT22;23741;49.446;8.754;2022-11-25T00:12:22;11.00;69.60
37910;DHT22;23741;49.446;8.754;2022-11-25T00:14:24;11.00;69.70
37910;DHT22;23741;49.446;8.754;2022-11-25T00:16:25;11.00;69.50
37910;DHT22;23741;49.446;8.754;2022-11-25T00:18:27;11.00;69.50
37910;DHT22;23741;49.446;8.754;2022-11-25T00:20:29;11.00;70.30
37910;DHT22;23741;49.446;8.754;2022-11-25T00:22:30;11.00;69.40
37910;DHT22;23741;49.446;8.754;2022-11-25T00:24:32;11.00;69.20
37910;DHT22;23741;49.446;8.754;2022-11-25T00:26:35;11.00;69.20
37910;DHT22;23741;49.446;8.754;2022-11-25T00:28:38;11.00;69.50
37910;DHT22;23741;49.446;8.754;2022-11-25T00:30:40;11.00;69.70
37910;DHT22;23741;49.446;8.754;2022-11-25T00:32:41;11.00;69.60
37910;DHT22;23741;49.446;8.754;2022-11-25T00:34:43;11.00;69.50
37910;DHT22;23741;49.446;8.754;2022-11-25T00:36:45;11.00;69.40
37910;DHT22;23741;49.446;8.754;2022-11-25T00:38:47;11.00;69.50
37910;DHT22;23741;49.446;8.754;2022-11-25T00:40:52;11.00;69.70
37910;DHT22;23741;49.446;8.754;2022-11-25T00:43:14;11.00;69.70
37910;DHT22;23741;49.446;8.754;2022-11-25T00:45:34;11.00;69.60
37910;DHT22;23741;49.446;8.754;2022-11-25T00:47:36;11.00;69.50
37910;DHT22;23741;49.446;8.754;2022-11-25T00:49:38;11.00;69.60
37910;DHT22;23741;49.446;8.754;2022-11-25T00:51:40;11.00;69.70
37910;DHT22;23741;49.446;8.754;2022-11-25T00:53:42;11.00;69.50
37910;DHT22;23741;49.446;8.754;2022-11-25T00:55:44;11.00;69.50
37910;DHT22;23741;49.446;8.754;2022-11-25T00:58:04;11.00;69.40
37910;DHT22;23741;49.446;8.754;2022-11-25T01:00:06;11.00;69.50
37910;DHT22;23741;49.446;8.754;2022-11-25T01:02:09;11.00;69.50
37910;DHT22;23741;49.446;8.754;2022-11-25T01:04:11;11.00;69.40
37910;DHT22;23741;49.446;8.754;2022-11-25T01:06:12;11.00;69.60
37910;DHT22;23741;49.446;8.754;2022-11-25T01:08:14;11.00;69.50
37910;DHT22;23741;49.446;8.754;2022-11-25T01:10:16;11.00;69.50
37910;DHT22;23741;49.446;8.754;2022-11-25T01:12:17;11.00;69.40
37910;DHT22;23741;49.446;8.754;2022-11-25T01:14:20;11.00;69.30
37910;DHT22;23741;49.446;8.754;2022-11-25T01:16:22;11.00;69.30
37910;DHT22;23741;49.446;8.754;2022-11-25T01:18:23;11.00;69.20
37910;DHT22;23741;49.446;8.754;2022-11-25T01:20:27;11.00;69.40
37910;DHT22;23741;49.446;8.754;2022-11-25T01:22:29;11.00;69.50
37910;DHT22;23741;49.446;8.754;2022-11-25T01:24:30;11.00;69.50
37910;DHT22;23741;49.446;8.754;2022-11-25T01:26:33;11.00;69.50
37910;DHT22;23741;49.446;8.754;2022-11-25T01:28:35;10.90;69.40
37910;DHT22;23741;49.446;8.754;2022-11-25T01:30:37;10.90;69.20
37910;DHT22;23741;49.446;8.754;2022-11-25T01:32:41;10.90;69.10
37910;DHT22;23741;49.446;8.754;2022-11-25T01:34:43;10.90;69.20
37910;DHT22;23741;49.446;8.754;2022-11-25T01:36:45;10.90;69.20
37910;DHT22;23741;49.446;8.754;2022-11-25T01:38:51;10.90;69.30
37910;DHT22;23741;49.446;8.754;2022-11-25T01:40:53;10.90;69.30
37910;DHT22;23741;49.446;8.754;2022-11-25T01:42:55;10.90;69.20
37910;DHT22;23741;49.446;8.754;2022-11-25T01:45:19;10.90;69.20
37910;DHT22;23741;49.446;8.754;2022-11-25T01:47:29;10.90;69.20
37910;DHT22;23741;49.446;8.754;2022-11-25T01:49:36;10.90;69.40
37910;DHT22;23741;49.446;8.754;2022-11-25T01:51:42;10.90;69.40
37910;DHT22;23741;49.446;8.754;2022-11-25T01:53:46;10.90;69.30
37910;DHT22;23741;49.446;8.754;2022-11-25T01:55:50;10.90;69.20
37910;DHT22;23741;49.446;8.754;2022-11-25T01:58:13;10.90;69.30
37910;DHT22;23741;49.446;8.754;2022-11-25T02:00:16;10.90;69.40
37910;DHT22;23741;49.446;8.754;2022-11-25T02:02:18;10.80;69.60
37910;DHT22;23741;49.446;8.754;2022-11-25T02:04:21;10.90;69.70
37910;DHT22;23741;49.446;8.754;2022-11-25T02:06:30;10.90;69.70
37910;DHT22;23741;49.446;8.754;2022-11-25T02:08:33;10.90;69.60
37910;DHT22;23741;49.446;8.754;2022-11-25T02:10:35;10.90;69.50
37910;DHT22;23741;49.446;8.754;2022-11-25T02:12:37;10.90;69.50
37910;DHT22;23741;49.446;8.754;2022-11-25T02:14:40;10.90;69.50
37910;DHT22;23741;49.446;8.754;2022-11-25T02:16:42;10.90;69.50
37910;DHT22;23741;49.446;8.754;2022-11-25T02:18:44;10.90;69.50
37910;DHT22;23741;49.446;8.754;2022-11-25T02:20:46;10.90;69.40
37910;DHT22;23741;49.446;8.754;2022-11-25T02:24:59;10.90;69.60
37910;DHT22;23741;49.446;8.754;2022-11-25T02:27:02;10.90;69.60
37910;DHT22;23741;49.446;8.754;2022-11-25T02:29:04;10.90;69.60
37910;DHT22;23741;49.446;8.754;2022-11-25T02:31:06;10.90;69.50
37910;DHT22;23741;49.446;8.754;2022-11-25T02:33:09;10.90;69.60
37910;DHT22;23741;49.446;8.754;2022-11-25T02:35:20;10.90;69.70
37910;DHT22;23741;49.446;8.754;2022-11-25T02:37:23;10.90;69.70
37910;DHT22;23741;49.446;8.754;2022-11-25T02:39:25;10.90;69.60
37910;DHT22;23741;49.446;8.754;2022-11-25T02:43:32;10.90;69.50
37910;DHT22;23741;49.446;8.754;2022-11-25T02:45:38;10.90;69.40
37910;DHT22;23741;49.446;8.754;2022-11-25T02:47:41;10.90;70.20
37910;DHT22;23741;49.446;8.754;2022-11-25T02:49:43;10.90;69.60
37910;DHT22;23741;49.446;8.754;2022-11-25T02:51:45;10.90;69.70
37910;DHT22;23741;49.446;8.754;2022-11-25T02:53:47;10.90;69.80
37910;DHT22;23741;49.446;8.754;2022-11-25T02:55:51;10.90;69.80
37910;DHT22;23741;49.446;8.754;2022-11-25T02:57:52;10.90;69.80
37910;DHT22;23741;49.446;8.754;2022-11-25T02:59:54;10.90;69.70
37910;DHT22;23741;49.446;8.754;2022-11-25T03:01:56;10.90;69.60
37910;DHT22;23741;49.446;8.754;2022-11-25T03:03:59;10.80;69.40
37910;DHT22;23741;49.446;8.754;2022-11-25T03:06:01;10.90;69.50
37910;DHT22;23741;49.446;8.754;2022-11-25T03:08:03;10.90;69.40
37910;DHT22;23741;49.446;8.754;2022-11-25T03:10:10;10.80;69.20
37910;DHT22;23741;49.446;8.754;2022-11-25T03:12:12;10.80;69.20
37910;DHT22;23741;49.446;8.754;2022-11-25T03:14:26;10.80;69.20
37910;DHT22;23741;49.446;8.754;2022-11-25T03:16:28;10.80;69.40
37910;DHT22;23741;49.446;8.754;2022-11-25T03:18:30;10.80;69.50
37910;DHT22;23741;49.446;8.754;2022-11-25T03:20:33;10.80;69.50
37910;DHT22;23741;49.446;8.754;2022-11-25T03:22:36;10.80;69.50
37910;DHT22;23741;49.446;8.754;2022-11-25T03:24:38;10.80;70.30
37910;DHT22;23741;49.446;8.754;2022-11-25T03:26:42;10.80;69.50
37910;DHT22;23741;49.446;8.754;2022-11-25T03:28:43;10.80;69.40
37910;DHT22;23741;49.446;8.754;2022-11-25T03:30:45;10.70;69.20
37910;DHT22;23741;49.446;8.754;2022-11-25T03:32:47;10.70;69.30
37910;DHT22;23741;49.446;8.754;2022-11-25T03:34:48;10.80;69.60
37910;DHT22;23741;49.446;8.754;2022-11-25T03:36:50;10.70;69.50
37910;DHT22;23741;49.446;8.754;2022-11-25T03:38:52;10.80;69.70
37910;DHT22;23741;49.446;8.754;2022-11-25T03:40:54;10.70;69.50
37910;DHT22;23741;49.446;8.754;2022-11-25T03:42:56;10.70;69.70
37910;DHT22;23741;49.446;8.754;2022-11-25T03:44:58;10.70;69.70
37910;DHT22;23741;49.446;8.754;2022-11-25T03:47:00;10.80;69.70
37910;DHT22;23741;49.446;8.754;2022-11-25T03:49:01;10.70;69.60
37910;DHT22;23741;49.446;8.754;2022-11-25T03:51:03;10.70;69.60
37910;DHT22;23741;49.446;8.754;2022-11-25T03:53:05;10.70;69.50
37910;DHT22;23741;49.446;8.754;2022-11-25T03:55:07;10.70;69.70
37910;DHT22;23741;49.446;8.754;2022-11-25T03:57:10;10.70;69.70
37910;DHT22;23741;49.446;8.754;2022-11-25T03:59:12;10.70;69.70
37910;DHT22;23741;49.446;8.754;2022-11-25T04:01:13;10.70;69.70
37910;DHT22;23741;49.446;8.754;2022-11-25T04:03:16;10.70;69.70
37910;DHT22;23741;49.446;8.754;2022-11-25T04:05:18;10.70;69.70
37910;DHT22;23741;49.446;8.754;2022-11-25T04:07:20;10.70;69.80
37910;DHT22;23741;49.446;8.754;2022-11-25T04:09:22;10.70;69.90
37910;DHT22;23741;49.446;8.754;2022-11-25T04:11:23;10.70;70.00
37910;DHT22;23741;49.446;8.754;2022-11-25T04:13:48;10.70;70.00
37910;DHT22;23741;49.446;8.754;2022-11-25T04:15:50;10.80;70.00
37910;DHT22;23741;49.446;8.754;2022-11-25T04:17:53;10.80;70.00
37910;DHT22;23741;49.446;8.754;2022-11-25T04:19:55;10.80;69.90
37910;DHT22;23741;49.446;8.754;2022-11-25T04:21:57;10.80;69.70
37910;DHT22;23741;49.446;8.754;2022-11-25T04:24:04;10.80;69.70
37910;DHT22;23741;49.446;8.754;2022-11-25T04:26:07;10.80;69.90
37910;DHT22;23741;49.446;8.754;2022-11-25T04:28:13;10.80;70.00
37910;DHT22;23741;49.446;8.754;2022-11-25T04:30:15;10.80;70.00
37910;DHT22;23741;49.446;8.754;2022-11-25T04:32:18;10.80;70.00
37910;DHT22;23741;49.446;8.754;2022-11-25T04:34:19;10.80;69.90
37910;DHT22;23741;49.446;8.754;2022-11-25T04:36:23;10.80;69.80
37910;DHT22;23741;49.446;8.754;2022-11-25T04:38:25;10.80;69.70
37910;DHT22;23741;49.446;8.754;2022-11-25T04:40:27;10.80;69.80
37910;DHT22;23741;49.446;8.754;2022-11-25T04:42:44;10.80;70.00
37910;DHT22;23741;49.446;8.754;2022-11-25T04:44:47;10.80;70.10
37910;DHT22;23741;49.446;8.754;2022-11-25T04:47:08;10.80;70.00
37910;DHT22;23741;49.446;8.754;2022-11-25T04:49:10;10.80;70.00
37910;DHT22;23741;49.446;8.754;2022-11-25T04:51:13;10.80;69.90
37910;DHT22;23741;49.446;8.754;2022-11-25T04:53:15;10.90;69.90
37910;DHT22;23741;49.446;8.754;2022-11-25T04:55:17;10.90;69.80
37910;DHT22;23741;49.446;8.754;2022-11-25T04:57:19;10.90;69.80
37910;DHT22;23741;49.446;8.754;2022-11-25T04:59:21;10.90;70.10
37910;DHT22;23741;49.446;8.754;2022-11-25T05:01:43;10.90;70.20
37910;DHT22;23741;49.446;8.754;2022-11-25T05:03:56;10.90;70.50
37910;DHT22;23741;49.446;8.754;2022-11-25T05:06:04;10.90;70.50
37910;DHT22;23741;49.446;8.754;2022-11-25T05:08:06;10.90;70.30
37910;DHT22;23741;49.446;8.754;2022-11-25T05:10:08;10.90;70.10
37910;DHT22;23741;49.446;8.754;2022-11-25T05:12:15;10.90;70.10
37910;DHT22;23741;49.446;8.754;2022-11-25T05:14:17;10.90;70.00
37910;DHT22;23741;49.446;8.754;2022-11-25T05:16:19;10.90;70.10
37910;DHT22;23741;49.446;8.754;2022-11-25T05:18:21;10.90;70.20
37910;DHT22;23741;49.446;8.754;2022-11-25T05:20:23;10.90;70.10
37910;DHT22;23741;49.446;8.754;2022-11-25T05:22:25;10.90;70.00
37910;DHT22;23741;49.446;8.754;2022-11-25T05:24:28;10.90;70.00
37910;DHT22;23741;49.446;8.754;2022-11-25T05:26:31;10.90;70.10
37910;DHT22;23741;49.446;8.754;2022-11-25T05:28:33;10.90;70.10
37910;DHT22;23741;49.446;8.754;2022-11-25T05:30:36;10.90;70.20
37910;DHT22;23741;49.446;8.754;2022-11-25T05:32:39;10.90;70.10
37910;DHT22;23741;49.446;8.754;2022-11-25T05:34:43;10.90;70.10
37910;DHT22;23741;49.446;8.754;2022-11-25T05:36:46;10.90;70.00
37910;DHT22;23741;49.446;8.754;2022-11-25T05:38:48;10.90;69.80
37910;DHT22;23741;49.446;8.754;2022-11-25T05:41:01;10.90;69.70
37910;DHT22;23741;49.446;8.754;2022-11-25T05:43:03;10.90;69.70
37910;DHT22;23741;49.446;8.754;2022-11-25T05:45:08;10.90;69.70
37910;DHT22;23741;49.446;8.754;2022-11-25T05:47:11;10.90;69.60
37910;DHT22;23741;49.446;8.754;2022-11-25T05:49:14;10.90;69.60
37910;DHT22;23741;49.446;8.754;2022-11-25T05:51:16;10.90;69.70
37910;DHT22;23741;49.446;8.754;2022-11-25T05:53:18;10.90;69.70
37910;DHT22;23741;49.446;8.754;2022-11-25T05:55:22;10.90;69.60
37910;DHT22;23741;49.446;8.754;2022-11-25T05:57:24;10.90;69.50
37910;DHT22;23741;49.446;8.754;2022-11-25T05:59:30;10.90;69.40
37910;DHT22;23741;49.446;8.754;2022-11-25T06:01:54;10.90;69.40
37910;DHT22;23741;49.446;8.754;2022-11-25T06:03:59;10.90;69.50
37910;DHT22;23741;49.446;8.754;2022-11-25T06:06:02;10.80;69.40
37910;DHT22;23741;49.446;8.754;2022-11-25T06:08:05;10.80;69.60
37910;DHT22;23741;49.446;8.754;2022-11-25T06:10:06;10.90;70.00
37910;DHT22;23741;49.446;8.754;2022-11-25T06:12:11;10.80;70.00
37910;DHT22;23741;49.446;8.754;2022-11-25T06:14:20;10.80;70.00
37910;DHT22;23741;49.446;8.754;2022-11-25T06:16:23;10.80;69.90
37910;DHT22;23741;49.446;8.754;2022-11-25T06:18:36;10.80;70.40
37910;DHT22;23741;49.446;8.754;2022-11-25T06:20:40;10.80;69.70
37910;DHT22;23741;49.446;8.754;2022-11-25T06:22:42;10.80;69.70
37910;DHT22;23741;49.446;8.754;2022-11-25T06:24:43;10.80;69.80
37910;DHT22;23741;49.446;8.754;2022-11-25T06:26:52;10.80;69.70
37910;DHT22;23741;49.446;8.754;2022-11-25T06:28:54;10.80;69.80
37910;DHT22;23741;49.446;8.754;2022-11-25T06:31:02;10.90;69.90
37910;DHT22;23741;49.446;8.754;2022-11-25T06:33:09;10.90;70.00
37910;DHT22;23741;49.446;8.754;2022-11-25T06:35:12;10.90;70.00
37910;DHT22;23741;49.446;8.754;2022-11-25T06:37:34;10.90;70.00
37910;DHT22;23741;49.446;8.754;2022-11-25T06:39:36;10.90;70.10
37910;DHT22;23741;49.446;8.754;2022-11-25T06:41:37;10.90;69.90
37910;DHT22;23741;49.446;8.754;2022-11-25T06:43:39;10.90;69.80
37910;DHT22;23741;49.446;8.754;2022-11-25T06:45:41;10.90;70.00
37910;DHT22;23741;49.446;8.754;2022-11-25T06:47:43;10.90;70.00
37910;DHT22;23741;49.446;8.754;2022-11-25T06:49:44;10.90;70.00
37910;DHT22;23741;49.446;8.754;2022-11-25T06:51:47;10.90;70.30
37910;DHT22;23741;49.446;8.754;2022-11-25T06:53:49;10.90;70.30
37910;DHT22;23741;49.446;8.754;2022-11-25T06:58:08;10.90;70.30
37910;DHT22;23741;49.446;8.754;2022-11-25T07:00:30;10.90;70.10
37910;DHT22;23741;49.446;8.754;2022-11-25T07:02:31;11.00;70.20
37910;DHT22;23741;49.446;8.754;2022-11-25T07:04:42;11.00;70.10
37910;DHT22;23741;49.446;8.754;2022-11-25T07:06:44;11.00;70.10
37910;DHT22;23741;49.446;8.754;2022-11-25T07:08:46;11.00;70.10
37910;DHT22;23741;49.446;8.754;2022-11-25T07:10:49;11.00;70.20
37910;DHT22;23741;49.446;8.754;2022-11-25T07:12:51;11.00;70.10
37910;DHT22;23741;49.446;8.754;2022-11-25T07:14:52;11.00;70.10
37910;DHT22;23741;49.446;8.754;2022-11-25T07:16:54;11.00;70.10
37910;DHT22;23741;49.446;8.754;2022-11-25T07:18:57;11.00;70.00
37910;DHT22;23741;49.446;8.754;2022-11-25T07:21:09;11.10;70.20
37910;DHT22;23741;49.446;8.754;2022-11-25T07:23:11;11.10;70.60
37910;DHT22;23741;49.446;8.754;2022-11-25T07:25:13;11.10;70.80
37910;DHT22;23741;49.446;8.754;2022-11-25T07:27:15;11.10;70.70
37910;DHT22;23741;49.446;8.754;2022-11-25T07:29:16;11.10;70.60
37910;DHT22;23741;49.446;8.754;2022-11-25T07:31:39;11.10;70.60
37910;DHT22;23741;49.446;8.754;2022-11-25T07:33:41;11.10;70.70
37910;DHT22;23741;49.446;8.754;2022-11-25T07:35:43;11.10;70.60
37910;DHT22;23741;49.446;8.754;2022-11-25T07:37:45;11.20;70.60
37910;DHT22;23741;49.446;8.754;2022-11-25T07:39:47;11.20;70.60
37910;DHT22;23741;49.446;8.754;2022-11-25T07:41:49;11.20;70.60
37910;DHT22;23741;49.446;8.754;2022-11-25T07:43:55;11.20;70.70
37910;DHT22;23741;49.446;8.754;2022-11-25T07:46:08;11.20;70.70
37910;DHT22;23741;49.446;8.754;2022-11-25T07:48:10;11.20;70.70
37910;DHT22;23741;49.446;8.754;2022-11-25T07:50:12;11.20;70.70
37910;DHT22;23741;49.446;8.754;2022-11-25T07:52:13;11.30;70.70
37910;DHT22;23741;49.446;8.754;2022-11-25T07:54:15;11.30;70.80
37910;DHT22;23741;49.446;8.754;2022-11-25T07:56:17;11.20;71.00
37910;DHT22;23741;49.446;8.754;2022-11-25T07:58:19;11.30;70.80
37910;DHT22;23741;49.446;8.754;2022-11-25T08:00:21;11.30;70.80
37910;DHT22;23741;49.446;8.754;2022-11-25T08:02:23;11.30;70.70
37910;DHT22;23741;49.446;8.754;2022-11-25T08:04:24;11.40;70.80
37910;DHT22;23741;49.446;8.754;2022-11-25T08:06:27;11.40;70.80
37910;DHT22;23741;49.446;8.754;2022-11-25T08:08:29;11.40;70.90
37910;DHT22;23741;49.446;8.754;2022-11-25T08:10:30;11.40;70.80
37910;DHT22;23741;49.446;8.754;2022-11-25T08:12:32;11.40;70.80
37910;DHT22;23741;49.446;8.754;2022-11-25T08:14:35;11.40;70.90
37910;DHT22;23741;49.446;8.754;2022-11-25T08:16:37;11.40;71.00
37910;DHT22;23741;49.446;8.754;2022-11-25T08:18:39;11.40;71.00
37910;DHT22;23741;49.446;8.754;2022-11-25T08:20:41;11.50;71.10
37910;DHT22;23741;49.446;8.754;2022-11-25T08:22:42;11.50;71.10
37910;DHT22;23741;49.446;8.754;2022-11-25T08:24:44;11.50;71.40
37910;DHT22;23741;49.446;8.754;2022-11-25T08:26:46;11.50;71.30
37910;DHT22;23741;49.446;8.754;2022-11-25T08:28:48;11.50;71.20
37910;DHT22;23741;49.446;8.754;2022-11-25T08:30:50;11.50;71.10
37910;DHT22;23741;49.446;8.754;2022-11-25T08:32:52;11.60;71.20
37910;DHT22;23741;49.446;8.754;2022-11-25T08:34:54;11.60;71.20
37910;DHT22;23741;49.446;8.754;2022-11-25T08:36:55;11.60;71.10
37910;DHT22;23741;49.446;8.754;2022-11-25T08:38:58;11.60;71.10
37910;DHT22;23741;49.446;8.754;2022-11-25T08:41:00;11.60;71.10
37910;DHT22;23741;49.446;8.754;2022-11-25T08:43:02;11.60;71.10
37910;DHT22;23741;49.446;8.754;2022-11-25T08:45:04;11.60;71.00
37910;DHT22;23741;49.446;8.754;2022-11-25T08:47:06;11.70;71.10
37910;DHT22;23741;49.446;8.754;2022-11-25T08:49:10;11.70;71.10
37910;DHT22;23741;49.446;8.754;2022-11-25T08:51:13;11.70;71.30
37910;DHT22;23741;49.446;8.754;2022-11-25T08:53:16;11.70;71.40
37910;DHT22;23741;49.446;8.754;2022-11-25T08:55:18;11.70;71.40
37910;DHT22;23741;49.446;8.754;2022-11-25T08:57:19;11.70;71.40
37910;DHT22;23741;49.446;8.754;2022-11-25T08:59:21;11.80;71.30
37910;DHT22;23741;49.446;8.754;2022-11-25T09:01:23;11.80;71.30
37910;DHT22;23741;49.446;8.754;2022-11-25T09:03:26;11.80;71.30
37910;DHT22;23741;49.446;8.754;2022-11-25T09:05:28;11.80;71.30
37910;DHT22;23741;49.446;8.754;2022-11-25T09:07:36;11.80;71.40
37910;DHT22;23741;49.446;8.754;2022-11-25T09:09:38;11.80;71.30
37910;DHT22;23741;49.446;8.754;2022-11-25T09:11:40;11.90;71.40
37910;DHT22;23741;49.446;8.754;2022-11-25T09:13:42;11.90;71.40
37910;DHT22;23741;49.446;8.754;2022-11-25T09:15:44;11.90;71.50
37910;DHT22;23741;49.446;8.754;2022-11-25T09:17:46;11.90;71.60
37910;DHT22;23741;49.446;8.754;2022-11-25T09:19:48;12.00;71.60
37910;DHT22;23741;49.446;8.754;2022-11-25T09:21:50;12.00;71.60
37910;DHT22;23741;49.446;8.754;2022-11-25T09:23:52;12.00;71.40
37910;DHT22;23741;49.446;8.754;2022-11-25T09:25:56;12.00;71.10
37910;DHT22;23741;49.446;8.754;2022-11-25T09:27:58;12.00;71.00
37910;DHT22;23741;49.446;8.754;2022-11-25T09:29:59;12.00;71.00
37910;DHT22;23741;49.446;8.754;2022-11-25T09:32:01;12.00;70.80
37910;DHT22;23741;49.446;8.754;2022-11-25T09:34:03;12.00;70.70
37910;DHT22;23741;49.446;8.754;2022-11-25T09:36:05;12.00;70.80
37910;DHT22;23741;49.446;8.754;2022-11-25T09:38:07;12.00;70.70
37910;DHT22;23741;49.446;8.754;2022-11-25T09:51:44;11.90;70.20
37910;DHT22;23741;49.446;8.754;2022-11-25T09:55:54;11.90;70.40
37910;DHT22;23741;49.446;8.754;2022-11-25T10:02:19;11.90;70.50
37910;DHT22;23741;49.446;8.754;2022-11-25T10:04:31;11.90;70.70
37910;DHT22;23741;49.446;8.754;2022-11-25T10:06:41;11.90;70.70
37910;DHT22;23741;49.446;8.754;2022-11-25T10:08:44;11.90;70.70
37910;DHT22;23741;49.446;8.754;2022-11-25T10:13:20;11.90;70.80
37910;DHT22;23741;49.446;8.754;2022-11-25T10:15:27;12.00;70.90
37910;DHT22;23741;49.446;8.754;2022-11-25T10:17:44;12.00;70.90
37910;DHT22;23741;49.446;8.754;2022-11-25T10:21:48;12.00;70.40
37910;DHT22;23741;49.446;8.754;2022-11-25T10:23:50;12.00;70.10
37910;DHT22;23741;49.446;8.754;2022-11-25T10:25:54;12.00;70.10
37910;DHT22;23741;49.446;8.754;2022-11-25T10:28:04;12.00;70.10
37910;DHT22;23741;49.446;8.754;2022-11-25T10:30:14;12.00;70.30
37910;DHT22;23741;49.446;8.754;2022-11-25T10:32:24;12.00;70.20
37910;DHT22;23741;49.446;8.754;2022-11-25T10:34:29;12.00;70.20
37910;DHT22;23741;49.446;8.754;2022-11-25T10:36:35;12.00;70.10
37910;DHT22;23741;49.446;8.754;2022-11-25T10:40:47;12.00;70.50
37910;DHT22;23741;49.446;8.754;2022-11-25T10:42:50;12.00;70.50
37910;DHT22;23741;49.446;8.754;2022-11-25T10:44:51;12.00;70.40
37910;DHT22;23741;49.446;8.754;2022-11-25T10:49:19;12.00;70.50
37910;DHT22;23741;49.446;8.754;2022-11-25T10:51:37;12.00;70.50
37910;DHT22;23741;49.446;8.754;2022-11-25T10:53:39;12.00;70.70
37910;DHT22;23741;49.446;8.754;2022-11-25T10:55:55;12.10;70.90
37910;DHT22;23741;49.446;8.754;2022-11-25T10:57:57;12.10;70.90
37910;DHT22;23741;49.446;8.754;2022-11-25T10:59:59;12.10;70.90
37910;DHT22;23741;49.446;8.754;2022-11-25T11:04:16;12.20;71.00
37910;DHT22;23741;49.446;8.754;2022-11-25T11:10:38;12.30;71.10
37910;DHT22;23741;49.446;8.754;2022-11-25T11:14:52;12.30;71.20
37910;DHT22;23741;49.446;8.754;2022-11-25T11:16:54;12.30;71.10
37910;DHT22;23741;49.446;8.754;2022-11-25T11:18:57;12.40;71.10
37910;DHT22;23741;49.446;8.754;2022-11-25T11:20:59;12.40;71.00
37910;DHT22;23741;49.446;8.754;2022-11-25T11:23:03;12.40;71.10
37910;DHT22;23741;49.446;8.754;2022-11-25T11:25:28;12.40;71.10
37910;DHT22;23741;49.446;8.754;2022-11-25T11:27:31;12.40;71.10
37910;DHT22;23741;49.446;8.754;2022-11-25T11:29:36;12.50;71.10
37910;DHT22;23741;49.446;8.754;2022-11-25T11:31:39;12.50;71.10
37910;DHT22;23741;49.446;8.754;2022-11-25T11:35:54;12.50;71.00
37910;DHT22;23741;49.446;8.754;2022-11-25T11:38:00;12.50;71.00
37910;DHT22;23741;49.446;8.754;2022-11-25T11:47:02;12.60;70.80
37910;DHT22;23741;49.446;8.754;2022-11-25T12:00:29;12.70;70.90
37910;DHT22;23741;49.446;8.754;2022-11-25T12:02:45;12.70;70.90
37910;DHT22;23741;49.446;8.754;2022-11-25T12:04:55;12.70;70.90
37910;DHT22;23741;49.446;8.754;2022-11-25T12:07:04;12.70;71.00
37910;DHT22;23741;49.446;8.754;2022-11-25T12:09:19;12.70;70.90
37910;DHT22;23741;49.446;8.754;2022-11-25T12:11:23;12.80;70.90
37910;DHT22;23741;49.446;8.754;2022-11-25T12:13:27;12.70;70.80
37910;DHT22;23741;49.446;8.754;2022-11-25T12:17:38;12.80;71.00
37910;DHT22;23741;49.446;8.754;2022-11-25T12:19:49;12.80;71.00
37910;DHT22;23741;49.446;8.754;2022-11-25T12:22:01;12.80;71.00
37910;DHT22;23741;49.446;8.754;2022-11-25T12:24:05;12.80;71.00
37910;DHT22;23741;49.446;8.754;2022-11-25T12:26:12;12.80;70.90
37910;DHT22;23741;49.446;8.754;2022-11-25T12:28:23;12.90;71.00
37910;DHT22;23741;49.446;8.754;2022-11-25T12:37:03;12.90;70.90
37910;DHT22;23741;49.446;8.754;2022-11-25T12:41:39;12.90;70.70
37910;DHT22;23741;49.446;8.754;2022-11-25T12:43:44;12.90;70.60
37910;DHT22;23741;49.446;8.754;2022-11-25T12:45:48;13.00;70.70
37910;DHT22;23741;49.446;8.754;2022-11-25T12:47:52;12.90;70.70
37910;DHT22;23741;49.446;8.754;2022-11-25T12:49:54;13.00;70.80
37910;DHT22;23741;49.446;8.754;2022-11-25T12:58:51;13.00;70.70
37910;DHT22;23741;49.446;8.754;2022-11-25T13:01:00;13.00;70.70
37910;DHT22;23741;49.446;8.754;2022-11-25T13:09:54;13.00;70.70
37910;DHT22;23741;49.446;8.754;2022-11-25T13:12:05;13.00;70.70
37910;DHT22;23741;49.446;8.754;2022-11-25T13:16:20;13.10;70.80
37910;DHT22;23741;49.446;8.754;2022-11-25T13:18:23;13.10;70.70
37910;DHT22;23741;49.446;8.754;2022-11-25T13:22:29;13.10;70.70
37910;DHT22;23741;49.446;8.754;2022-11-25T13:26:34;13.10;70.60
37910;DHT22;23741;49.446;8.754;2022-11-25T13:28:39;13.10;70.60
37910;DHT22;23741;49.446;8.754;2022-11-25T13:30:41;13.10;70.60
37910;DHT22;23741;49.446;8.754;2022-11-25T13:32:43;13.10;70.60
37910;DHT22;23741;49.446;8.754;2022-11-25T13:34:44;13.10;70.70
37910;DHT22;23741;49.446;8.754;2022-11-25T13:36:47;13.20;71.00
37910;DHT22;23741;49.446;8.754;2022-11-25T13:40:58;13.20;70.70
37910;DHT22;23741;49.446;8.754;2022-11-25T13:43:00;13.20;70.70
37910;DHT22;23741;49.446;8.754;2022-11-25T13:45:02;13.20;70.80
37910;DHT22;23741;49.446;8.754;2022-11-25T13:51:30;13.30;71.00
37910;DHT22;23741;49.446;8.754;2022-11-25T13:53:35;13.30;71.00
37910;DHT22;23741;49.446;8.754;2022-11-25T13:55:39;13.30;71.00
37910;DHT22;23741;49.446;8.754;2022-11-25T13:57:48;13.40;71.10
37910;DHT22;23741;49.446;8.754;2022-11-25T14:00:04;13.40;71.00
37910;DHT22;23741;49.446;8.754;2022-11-25T14:09:33;13.50;70.80
37910;DHT22;23741;49.446;8.754;2022-11-25T14:13:59;13.50;70.60
37910;DHT22;23741;49.446;8.754;2022-11-25T14:19:15;13.60;70.80
37910;DHT22;23741;49.446;8.754;2022-11-25T14:21:22;13.60;70.60
37910;DHT22;23741;49.446;8.754;2022-11-25T14:23:35;13.60;70.60
37910;DHT22;23741;49.446;8.754;2022-11-25T14:27:46;13.60;70.50
37910;DHT22;23741;49.446;8.754;2022-11-25T14:29:58;13.60;70.50
37910;DHT22;23741;49.446;8.754;2022-11-25T14:32:06;13.60;70.50
37910;DHT22;23741;49.446;8.754;2022-11-25T14:36:31;13.60;70.50
37910;DHT22;23741;49.446;8.754;2022-11-25T14:38:39;13.60;70.50
37910;DHT22;23741;49.446;8.754;2022-11-25T14:40:43;13.60;70.60
37910;DHT22;23741;49.446;8.754;2022-11-25T14:42:52;13.70;70.70
37910;DHT22;23741;49.446;8.754;2022-11-25T14:44:58;13.70;70.60
37910;DHT22;23741;49.446;8.754;2022-11-25T14:47:02;13.70;70.60
37910;DHT22;23741;49.446;8.754;2022-11-25T14:49:04;13.70;70.70
37910;DHT22;23741;49.446;8.754;2022-11-25T14:51:26;13.70;70.60
37910;DHT22;23741;49.446;8.754;2022-11-25T14:53:28;13.70;70.50
37910;DHT22;23741;49.446;8.754;2022-11-25T14:55:31;13.70;70.70
37910;DHT22;23741;49.446;8.754;2022-11-25T14:57:33;13.70;70.50
37910;DHT22;23741;49.446;8.754;2022-11-25T14:59:36;13.70;70.50
37910;DHT22;23741;49.446;8.754;2022-11-25T15:01:49;13.70;70.50